sensor_id;sensor_type;location;lat;lon;timestamp;P1;durP1;ratioP1;P2;durP2;ratioP2
10126;SDS011;13080;42.608;23.362;2023-02-13T00:00:51;53.47;;;23.45;;
10126;SDS011;13080;42.608;23.362;2023-02-13T00:03:18;47.08;;;19.85;;
10126;SDS011;13080;42.608;23.362;2023-02-13T00:05:44;47.85;;;21.23;;
10126;SDS011;13080;42.608;23.362;2023-02-13T00:08:11;48.60;;;22.30;;
10126;SDS011;13080;42.608;23.362;2023-02-13T00:10:38;51.25;;;20.63;;
10126;SDS011;13080;42.608;23.362;2023-02-13T00:13:05;48.55;;;22.05;;
10126;SDS011;13080;42.608;23.362;2023-02-13T00:15:31;46.15;;;20.30;;
10126;SDS011;13080;42.608;23.362;2023-02-13T00:18:00;45.53;;;20.20;;
10126;SDS011;13080;42.608;23.362;2023-02-13T00:20:27;42.78;;;20.92;;
10126;SDS011;13080;42.608;23.362;2023-02-13T00:22:54;46.05;;;21.00;;
10126;SDS011;13080;42.608;23.362;2023-02-13T00:25:20;55.45;;;21.25;;
10126;SDS011;13080;42.608;23.362;2023-02-13T00:27:47;45.65;;;20.92;;
10126;SDS011;13080;42.608;23.362;2023-02-13T00:30:16;46.00;;;21.33;;
10126;SDS011;13080;42.608;23.362;2023-02-13T00:32:43;45.60;;;20.20;;
10126;SDS011;13080;42.608;23.362;2023-02-13T00:35:11;45.42;;;22.50;;
10126;SDS011;13080;42.608;23.362;2023-02-13T00:37:38;42.75;;;18.67;;
10126;SDS011;13080;42.608;23.362;2023-02-13T00:40:05;48.53;;;20.20;;
10126;SDS011;13080;42.608;23.362;2023-02-13T00:42:33;46.63;;;19.20;;
10126;SDS011;13080;42.608;23.362;2023-02-13T00:44:59;47.17;;;21.27;;
10126;SDS011;13080;42.608;23.362;2023-02-13T00:47:26;39.70;;;19.55;;
10126;SDS011;13080;42.608;23.362;2023-02-13T00:49:53;45.42;;;21.65;;
10126;SDS011;13080;42.608;23.362;2023-02-13T00:52:21;49.60;;;24.40;;
10126;SDS011;13080;42.608;23.362;2023-02-13T00:54:47;49.55;;;21.35;;
10126;SDS011;13080;42.608;23.362;2023-02-13T00:57:14;53.38;;;22.50;;
10126;SDS011;13080;42.608;23.362;2023-02-13T00:59:41;45.88;;;23.40;;
10126;SDS011;13080;42.608;23.362;2023-02-13T01:02:07;45.03;;;22.00;;
10126;SDS011;13080;42.608;23.362;2023-02-13T01:04:34;71.20;;;32.42;;
10126;SDS011;13080;42.608;23.362;2023-02-13T01:07:01;49.20;;;24.58;;
10126;SDS011;13080;42.608;23.362;2023-02-13T01:09:29;48.25;;;21.48;;
10126;SDS011;13080;42.608;23.362;2023-02-13T01:11:56;39.90;;;17.70;;
10126;SDS011;13080;42.608;23.362;2023-02-13T01:14:22;43.45;;;19.95;;
10126;SDS011;13080;42.608;23.362;2023-02-13T01:16:49;42.67;;;21.23;;
10126;SDS011;13080;42.608;23.362;2023-02-13T01:19:16;41.97;;;19.60;;
10126;SDS011;13080;42.608;23.362;2023-02-13T01:21:43;50.70;;;21.75;;
10126;SDS011;13080;42.608;23.362;2023-02-13T01:24:09;41.97;;;19.40;;
10126;SDS011;13080;42.608;23.362;2023-02-13T01:26:38;47.83;;;20.73;;
10126;SDS011;13080;42.608;23.362;2023-02-13T01:29:04;40.85;;;21.60;;
10126;SDS011;13080;42.608;23.362;2023-02-13T01:31:31;48.33;;;23.40;;
10126;SDS011;13080;42.608;23.362;2023-02-13T01:33:58;50.45;;;22.00;;
10126;SDS011;13080;42.608;23.362;2023-02-13T01:36:25;41.38;;;20.80;;
10126;SDS011;13080;42.608;23.362;2023-02-13T01:38:53;38.55;;;19.73;;
10126;SDS011;13080;42.608;23.362;2023-02-13T01:41:21;42.70;;;18.88;;
10126;SDS011;13080;42.608;23.362;2023-02-13T01:43:50;38.72;;;18.23;;
10126;SDS011;13080;42.608;23.362;2023-02-13T01:46:20;49.47;;;21.23;;
10126;SDS011;13080;42.608;23.362;2023-02-13T01:48:50;44.90;;;18.35;;
10126;SDS011;13080;42.608;23.362;2023-02-13T01:51:21;45.90;;;20.15;;
10126;SDS011;13080;42.608;23.362;2023-02-13T01:53:53;46.28;;;20.70;;
10126;SDS011;13080;42.608;23.362;2023-02-13T01:56:24;43.88;;;19.95;;
10126;SDS011;13080;42.608;23.362;2023-02-13T01:58:56;43.13;;;19.42;;
10126;SDS011;13080;42.608;23.362;2023-02-13T02:01:25;44.88;;;20.67;;
10126;SDS011;13080;42.608;23.362;2023-02-13T02:03:54;45.08;;;20.15;;
10126;SDS011;13080;42.608;23.362;2023-02-13T02:06:25;45.72;;;20.40;;
10126;SDS011;13080;42.608;23.362;2023-02-13T02:08:54;45.78;;;20.58;;
10126;SDS011;13080;42.608;23.362;2023-02-13T02:11:26;49.42;;;21.95;;
10126;SDS011;13080;42.608;23.362;2023-02-13T02:14:01;48.35;;;21.58;;
10126;SDS011;13080;42.608;23.362;2023-02-13T02:16:28;68.13;;;31.63;;
10126;SDS011;13080;42.608;23.362;2023-02-13T02:18:57;53.97;;;24.15;;
10126;SDS011;13080;42.608;23.362;2023-02-13T02:21:36;48.83;;;21.33;;
10126;SDS011;13080;42.608;23.362;2023-02-13T02:24:46;47.40;;;20.63;;
10126;SDS011;13080;42.608;23.362;2023-02-13T02:30:44;45.92;;;20.00;;
10126;SDS011;13080;42.608;23.362;2023-02-13T02:33:33;53.47;;;21.27;;
10126;SDS011;13080;42.608;23.362;2023-02-13T02:36:16;54.55;;;23.52;;
10126;SDS011;13080;42.608;23.362;2023-02-13T02:38:58;51.08;;;22.67;;
10126;SDS011;13080;42.608;23.362;2023-02-13T02:41:35;52.80;;;23.30;;
10126;SDS011;13080;42.608;23.362;2023-02-13T02:44:14;47.78;;;21.42;;
10126;SDS011;13080;42.608;23.362;2023-02-13T02:46:55;57.78;;;20.80;;
10126;SDS011;13080;42.608;23.362;2023-02-13T02:49:49;51.67;;;22.23;;
10126;SDS011;13080;42.608;23.362;2023-02-13T02:52:27;56.13;;;22.20;;
10126;SDS011;13080;42.608;23.362;2023-02-13T02:55:04;44.30;;;20.88;;
10126;SDS011;13080;42.608;23.362;2023-02-13T02:57:37;52.67;;;22.73;;
10126;SDS011;13080;42.608;23.362;2023-02-13T03:00:25;52.50;;;21.13;;
10126;SDS011;13080;42.608;23.362;2023-02-13T03:03:13;52.97;;;21.25;;
10126;SDS011;13080;42.608;23.362;2023-02-13T03:06:01;51.17;;;20.88;;
10126;SDS011;13080;42.608;23.362;2023-02-13T03:08:38;53.45;;;22.77;;
10126;SDS011;13080;42.608;23.362;2023-02-13T03:11:24;55.97;;;22.90;;
10126;SDS011;13080;42.608;23.362;2023-02-13T03:14:09;55.35;;;23.08;;
10126;SDS011;13080;42.608;23.362;2023-02-13T03:16:38;52.30;;;22.23;;
10126;SDS011;13080;42.608;23.362;2023-02-13T03:19:25;53.08;;;23.35;;
10126;SDS011;13080;42.608;23.362;2023-02-13T03:22:25;50.88;;;21.40;;
10126;SDS011;13080;42.608;23.362;2023-02-13T03:24:59;50.97;;;22.35;;
10126;SDS011;13080;42.608;23.362;2023-02-13T03:27:37;51.08;;;23.25;;
10126;SDS011;13080;42.608;23.362;2023-02-13T03:30:29;49.65;;;20.58;;
10126;SDS011;13080;42.608;23.362;2023-02-13T03:33:08;54.50;;;23.08;;
10126;SDS011;13080;42.608;23.362;2023-02-13T03:35:56;56.10;;;22.40;;
10126;SDS011;13080;42.608;23.362;2023-02-13T03:38:49;49.67;;;20.40;;
10126;SDS011;13080;42.608;23.362;2023-02-13T03:41:22;49.22;;;19.95;;
10126;SDS011;13080;42.608;23.362;2023-02-13T03:43:58;47.72;;;20.40;;
10126;SDS011;13080;42.608;23.362;2023-02-13T03:46:29;48.80;;;21.65;;
10126;SDS011;13080;42.608;23.362;2023-02-13T03:49:00;53.53;;;20.92;;
10126;SDS011;13080;42.608;23.362;2023-02-13T03:51:48;54.90;;;21.83;;
10126;SDS011;13080;42.608;23.362;2023-02-13T03:54:20;53.15;;;21.27;;
10126;SDS011;13080;42.608;23.362;2023-02-13T03:57:09;49.90;;;21.73;;
10126;SDS011;13080;42.608;23.362;2023-02-13T03:59:57;47.88;;;19.33;;
10126;SDS011;13080;42.608;23.362;2023-02-13T04:02:27;52.85;;;19.63;;
10126;SDS011;13080;42.608;23.362;2023-02-13T04:05:00;50.13;;;21.40;;
10126;SDS011;13080;42.608;23.362;2023-02-13T04:07:33;49.97;;;22.70;;
10126;SDS011;13080;42.608;23.362;2023-02-13T04:10:02;57.08;;;23.77;;
10126;SDS011;13080;42.608;23.362;2023-02-13T04:12:36;48.75;;;22.35;;
10126;SDS011;13080;42.608;23.362;2023-02-13T04:15:08;46.90;;;22.17;;
10126;SDS011;13080;42.608;23.362;2023-02-13T04:17:42;49.47;;;21.58;;
10126;SDS011;13080;42.608;23.362;2023-02-13T04:20:12;46.10;;;21.48;;
10126;SDS011;13080;42.608;23.362;2023-02-13T04:22:43;45.58;;;19.50;;
10126;SDS011;13080;42.608;23.362;2023-02-13T04:25:11;56.45;;;22.95;;
10126;SDS011;13080;42.608;23.362;2023-02-13T04:27:41;51.10;;;21.48;;
10126;SDS011;13080;42.608;23.362;2023-02-13T04:30:08;51.30;;;21.35;;
10126;SDS011;13080;42.608;23.362;2023-02-13T04:32:36;48.15;;;21.02;;
10126;SDS011;13080;42.608;23.362;2023-02-13T04:35:02;52.60;;;22.13;;
10126;SDS011;13080;42.608;23.362;2023-02-13T04:37:29;47.50;;;21.80;;
10126;SDS011;13080;42.608;23.362;2023-02-13T04:39:56;49.75;;;19.85;;
10126;SDS011;13080;42.608;23.362;2023-02-13T04:42:24;48.65;;;21.02;;
10126;SDS011;13080;42.608;23.362;2023-02-13T04:44:51;56.22;;;21.27;;
10126;SDS011;13080;42.608;23.362;2023-02-13T04:47:17;53.10;;;20.05;;
10126;SDS011;13080;42.608;23.362;2023-02-13T04:49:44;51.83;;;20.48;;
10126;SDS011;13080;42.608;23.362;2023-02-13T04:52:11;40.53;;;19.98;;
10126;SDS011;13080;42.608;23.362;2023-02-13T04:54:39;49.65;;;21.75;;
10126;SDS011;13080;42.608;23.362;2023-02-13T04:57:06;45.10;;;21.38;;
10126;SDS011;13080;42.608;23.362;2023-02-13T04:59:34;45.58;;;18.77;;
10126;SDS011;13080;42.608;23.362;2023-02-13T05:02:01;48.92;;;20.80;;
10126;SDS011;13080;42.608;23.362;2023-02-13T05:04:27;51.45;;;23.38;;
10126;SDS011;13080;42.608;23.362;2023-02-13T05:06:54;50.28;;;20.45;;
10126;SDS011;13080;42.608;23.362;2023-02-13T05:09:21;51.63;;;23.20;;
10126;SDS011;13080;42.608;23.362;2023-02-13T05:11:49;46.45;;;22.23;;
10126;SDS011;13080;42.608;23.362;2023-02-13T05:14:16;44.42;;;20.92;;
10126;SDS011;13080;42.608;23.362;2023-02-13T05:16:44;46.05;;;18.52;;
10126;SDS011;13080;42.608;23.362;2023-02-13T05:19:11;49.80;;;19.85;;
10126;SDS011;13080;42.608;23.362;2023-02-13T05:21:38;56.97;;;22.85;;
10126;SDS011;13080;42.608;23.362;2023-02-13T05:24:22;49.58;;;20.98;;
10126;SDS011;13080;42.608;23.362;2023-02-13T05:26:49;45.55;;;21.75;;
10126;SDS011;13080;42.608;23.362;2023-02-13T05:29:16;50.67;;;22.17;;
10126;SDS011;13080;42.608;23.362;2023-02-13T05:31:48;47.53;;;20.55;;
10126;SDS011;13080;42.608;23.362;2023-02-13T05:34:17;48.63;;;22.17;;
10126;SDS011;13080;42.608;23.362;2023-02-13T05:36:47;48.25;;;22.17;;
10126;SDS011;13080;42.608;23.362;2023-02-13T05:39:14;56.35;;;23.05;;
10126;SDS011;13080;42.608;23.362;2023-02-13T05:41:41;48.65;;;22.08;;
10126;SDS011;13080;42.608;23.362;2023-02-13T05:44:09;47.22;;;20.95;;
10126;SDS011;13080;42.608;23.362;2023-02-13T05:46:38;43.60;;;21.33;;
10126;SDS011;13080;42.608;23.362;2023-02-13T05:49:07;46.10;;;20.00;;
10126;SDS011;13080;42.608;23.362;2023-02-13T05:51:35;56.65;;;23.08;;
10126;SDS011;13080;42.608;23.362;2023-02-13T05:54:02;50.00;;;21.98;;
10126;SDS011;13080;42.608;23.362;2023-02-13T05:56:29;48.55;;;19.98;;
10126;SDS011;13080;42.608;23.362;2023-02-13T05:58:56;48.47;;;21.52;;
10126;SDS011;13080;42.608;23.362;2023-02-13T06:01:22;46.05;;;20.20;;
10126;SDS011;13080;42.608;23.362;2023-02-13T06:03:50;50.05;;;18.90;;
10126;SDS011;13080;42.608;23.362;2023-02-13T06:06:18;41.55;;;20.10;;
10126;SDS011;13080;42.608;23.362;2023-02-13T06:08:45;47.88;;;21.02;;
10126;SDS011;13080;42.608;23.362;2023-02-13T06:11:12;46.15;;;19.45;;
10126;SDS011;13080;42.608;23.362;2023-02-13T06:13:38;43.95;;;19.98;;
10126;SDS011;13080;42.608;23.362;2023-02-13T06:16:05;44.83;;;19.40;;
10126;SDS011;13080;42.608;23.362;2023-02-13T06:18:33;40.42;;;20.00;;
10126;SDS011;13080;42.608;23.362;2023-02-13T06:21:00;51.00;;;20.77;;
10126;SDS011;13080;42.608;23.362;2023-02-13T06:23:28;46.55;;;20.75;;
10126;SDS011;13080;42.608;23.362;2023-02-13T06:25:55;51.38;;;23.00;;
10126;SDS011;13080;42.608;23.362;2023-02-13T06:28:22;51.45;;;21.52;;
10126;SDS011;13080;42.608;23.362;2023-02-13T06:30:48;46.67;;;20.73;;
10126;SDS011;13080;42.608;23.362;2023-02-13T06:33:15;47.35;;;20.70;;
10126;SDS011;13080;42.608;23.362;2023-02-13T06:35:42;43.55;;;19.95;;
10126;SDS011;13080;42.608;23.362;2023-02-13T06:38:08;42.45;;;20.13;;
10126;SDS011;13080;42.608;23.362;2023-02-13T06:40:36;45.83;;;19.10;;
10126;SDS011;13080;42.608;23.362;2023-02-13T06:43:03;43.75;;;20.75;;
10126;SDS011;13080;42.608;23.362;2023-02-13T06:45:30;57.63;;;22.48;;
10126;SDS011;13080;42.608;23.362;2023-02-13T06:47:57;59.03;;;23.10;;
10126;SDS011;13080;42.608;23.362;2023-02-13T06:50:23;49.70;;;21.92;;
10126;SDS011;13080;42.608;23.362;2023-02-13T06:52:50;47.72;;;21.33;;
10126;SDS011;13080;42.608;23.362;2023-02-13T06:55:17;47.05;;;20.65;;
10126;SDS011;13080;42.608;23.362;2023-02-13T06:57:47;46.10;;;21.35;;
10126;SDS011;13080;42.608;23.362;2023-02-13T07:00:15;53.15;;;23.67;;
10126;SDS011;13080;42.608;23.362;2023-02-13T07:02:45;48.92;;;23.88;;
10126;SDS011;13080;42.608;23.362;2023-02-13T07:05:12;56.35;;;24.00;;
10126;SDS011;13080;42.608;23.362;2023-02-13T07:07:40;53.40;;;23.33;;
10126;SDS011;13080;42.608;23.362;2023-02-13T07:10:09;50.97;;;22.27;;
10126;SDS011;13080;42.608;23.362;2023-02-13T07:12:37;51.83;;;24.10;;
10126;SDS011;13080;42.608;23.362;2023-02-13T07:15:06;57.75;;;22.98;;
10126;SDS011;13080;42.608;23.362;2023-02-13T07:17:33;50.63;;;22.45;;
10126;SDS011;13080;42.608;23.362;2023-02-13T07:20:00;55.85;;;23.83;;
10126;SDS011;13080;42.608;23.362;2023-02-13T07:22:29;57.33;;;27.20;;
10126;SDS011;13080;42.608;23.362;2023-02-13T07:24:56;64.10;;;27.20;;
10126;SDS011;13080;42.608;23.362;2023-02-13T07:27:24;60.65;;;26.55;;
10126;SDS011;13080;42.608;23.362;2023-02-13T07:29:53;65.15;;;26.45;;
10126;SDS011;13080;42.608;23.362;2023-02-13T07:32:21;54.05;;;25.67;;
10126;SDS011;13080;42.608;23.362;2023-02-13T07:34:48;57.33;;;24.73;;
10126;SDS011;13080;42.608;23.362;2023-02-13T07:37:15;57.85;;;23.88;;
10126;SDS011;13080;42.608;23.362;2023-02-13T07:39:42;50.20;;;21.30;;
10126;SDS011;13080;42.608;23.362;2023-02-13T07:42:08;55.45;;;23.73;;
10126;SDS011;13080;42.608;23.362;2023-02-13T07:44:35;54.65;;;25.15;;
10126;SDS011;13080;42.608;23.362;2023-02-13T07:47:02;52.47;;;23.30;;
10126;SDS011;13080;42.608;23.362;2023-02-13T07:49:30;54.80;;;24.52;;
10126;SDS011;13080;42.608;23.362;2023-02-13T07:51:57;47.13;;;20.05;;
10126;SDS011;13080;42.608;23.362;2023-02-13T07:54:23;50.92;;;22.55;;
10126;SDS011;13080;42.608;23.362;2023-02-13T07:56:50;44.60;;;19.05;;
10126;SDS011;13080;42.608;23.362;2023-02-13T07:59:17;47.42;;;18.80;;
10126;SDS011;13080;42.608;23.362;2023-02-13T08:01:44;42.20;;;18.95;;
10126;SDS011;13080;42.608;23.362;2023-02-13T08:04:10;44.40;;;19.42;;
10126;SDS011;13080;42.608;23.362;2023-02-13T08:06:39;49.15;;;21.90;;
10126;SDS011;13080;42.608;23.362;2023-02-13T08:09:06;51.65;;;24.38;;
10126;SDS011;13080;42.608;23.362;2023-02-13T08:12:00;45.50;;;20.05;;
10126;SDS011;13080;42.608;23.362;2023-02-13T08:14:27;54.25;;;24.13;;
10126;SDS011;13080;42.608;23.362;2023-02-13T08:16:53;40.00;;;19.20;;
10126;SDS011;13080;42.608;23.362;2023-02-13T08:19:20;44.97;;;19.15;;
10126;SDS011;13080;42.608;23.362;2023-02-13T08:21:48;45.80;;;20.55;;
10126;SDS011;13080;42.608;23.362;2023-02-13T08:24:15;41.95;;;20.23;;
10126;SDS011;13080;42.608;23.362;2023-02-13T08:26:42;45.35;;;19.48;;
10126;SDS011;13080;42.608;23.362;2023-02-13T08:29:09;42.83;;;19.77;;
10126;SDS011;13080;42.608;23.362;2023-02-13T08:31:36;46.40;;;21.95;;
10126;SDS011;13080;42.608;23.362;2023-02-13T08:34:03;50.10;;;22.17;;
10126;SDS011;13080;42.608;23.362;2023-02-13T08:36:30;43.13;;;19.42;;
10126;SDS011;13080;42.608;23.362;2023-02-13T08:38:58;52.70;;;20.88;;
10126;SDS011;13080;42.608;23.362;2023-02-13T08:41:25;49.30;;;21.50;;
10126;SDS011;13080;42.608;23.362;2023-02-13T08:43:52;44.25;;;20.40;;
10126;SDS011;13080;42.608;23.362;2023-02-13T08:46:19;39.38;;;20.23;;
10126;SDS011;13080;42.608;23.362;2023-02-13T08:48:46;43.65;;;21.08;;
10126;SDS011;13080;42.608;23.362;2023-02-13T08:51:13;47.10;;;19.80;;
10126;SDS011;13080;42.608;23.362;2023-02-13T08:53:40;51.40;;;22.65;;
10126;SDS011;13080;42.608;23.362;2023-02-13T08:56:09;51.60;;;21.00;;
10126;SDS011;13080;42.608;23.362;2023-02-13T08:58:36;48.05;;;20.98;;
10126;SDS011;13080;42.608;23.362;2023-02-13T09:01:03;51.03;;;23.35;;
10126;SDS011;13080;42.608;23.362;2023-02-13T09:03:31;50.97;;;21.17;;
10126;SDS011;13080;42.608;23.362;2023-02-13T09:05:58;51.25;;;22.23;;
10126;SDS011;13080;42.608;23.362;2023-02-13T09:08:25;44.97;;;20.25;;
10126;SDS011;13080;42.608;23.362;2023-02-13T09:10:55;45.28;;;20.20;;
10126;SDS011;13080;42.608;23.362;2023-02-13T09:13:27;45.08;;;19.98;;
10126;SDS011;13080;42.608;23.362;2023-02-13T09:15:56;40.17;;;20.58;;
10126;SDS011;13080;42.608;23.362;2023-02-13T09:18:27;47.33;;;20.02;;
10126;SDS011;13080;42.608;23.362;2023-02-13T09:20:57;47.38;;;20.63;;
10126;SDS011;13080;42.608;23.362;2023-02-13T09:23:25;46.40;;;21.27;;
10126;SDS011;13080;42.608;23.362;2023-02-13T09:25:52;44.58;;;20.63;;
10126;SDS011;13080;42.608;23.362;2023-02-13T09:28:19;45.65;;;20.35;;
10126;SDS011;13080;42.608;23.362;2023-02-13T09:30:47;52.97;;;22.02;;
10126;SDS011;13080;42.608;23.362;2023-02-13T09:33:14;47.88;;;22.13;;
10126;SDS011;13080;42.608;23.362;2023-02-13T09:35:41;51.20;;;21.92;;
10126;SDS011;13080;42.608;23.362;2023-02-13T09:38:09;51.17;;;22.23;;
10126;SDS011;13080;42.608;23.362;2023-02-13T09:40:36;48.97;;;23.13;;
10126;SDS011;13080;42.608;23.362;2023-02-13T09:45:38;40.92;;;18.60;;
10126;SDS011;13080;42.608;23.362;2023-02-13T09:48:09;43.25;;;20.80;;
10126;SDS011;13080;42.608;23.362;2023-02-13T09:50:43;51.00;;;23.33;;
10126;SDS011;13080;42.608;23.362;2023-02-13T09:53:10;48.85;;;20.90;;
10126;SDS011;13080;42.608;23.362;2023-02-13T09:55:46;44.78;;;21.00;;
10126;SDS011;13080;42.608;23.362;2023-02-13T09:58:21;49.65;;;22.95;;
10126;SDS011;13080;42.608;23.362;2023-02-13T10:01:13;48.53;;;21.75;;
10126;SDS011;13080;42.608;23.362;2023-02-13T10:06:18;45.72;;;20.98;;
10126;SDS011;13080;42.608;23.362;2023-02-13T10:08:58;47.13;;;21.55;;
10126;SDS011;13080;42.608;23.362;2023-02-13T10:11:44;45.30;;;20.40;;
10126;SDS011;13080;42.608;23.362;2023-02-13T10:14:27;48.92;;;20.50;;
10126;SDS011;13080;42.608;23.362;2023-02-13T10:17:01;49.65;;;21.58;;
10126;SDS011;13080;42.608;23.362;2023-02-13T10:19:34;49.30;;;22.05;;
10126;SDS011;13080;42.608;23.362;2023-02-13T10:22:09;52.25;;;21.60;;
10126;SDS011;13080;42.608;23.362;2023-02-13T10:27:12;46.80;;;20.83;;
10126;SDS011;13080;42.608;23.362;2023-02-13T10:29:46;49.28;;;22.33;;
10126;SDS011;13080;42.608;23.362;2023-02-13T10:32:39;52.90;;;21.55;;
10126;SDS011;13080;42.608;23.362;2023-02-13T10:37:58;52.35;;;23.13;;
10126;SDS011;13080;42.608;23.362;2023-02-13T10:40:27;46.50;;;22.30;;
10126;SDS011;13080;42.608;23.362;2023-02-13T10:42:59;50.65;;;23.58;;
10126;SDS011;13080;42.608;23.362;2023-02-13T10:45:37;51.65;;;21.20;;
10126;SDS011;13080;42.608;23.362;2023-02-13T10:48:18;48.30;;;22.40;;
10126;SDS011;13080;42.608;23.362;2023-02-13T10:51:01;47.75;;;20.67;;
10126;SDS011;13080;42.608;23.362;2023-02-13T10:53:36;52.65;;;21.83;;
10126;SDS011;13080;42.608;23.362;2023-02-13T10:56:15;57.33;;;23.42;;
10126;SDS011;13080;42.608;23.362;2023-02-13T10:58:52;50.70;;;23.27;;
10126;SDS011;13080;42.608;23.362;2023-02-13T11:01:24;51.70;;;24.38;;
10126;SDS011;13080;42.608;23.362;2023-02-13T11:04:00;51.40;;;23.33;;
10126;SDS011;13080;42.608;23.362;2023-02-13T11:06:31;52.65;;;23.90;;
10126;SDS011;13080;42.608;23.362;2023-02-13T11:09:02;52.33;;;23.23;;
10126;SDS011;13080;42.608;23.362;2023-02-13T11:11:31;49.70;;;22.52;;
10126;SDS011;13080;42.608;23.362;2023-02-13T11:14:10;60.15;;;25.85;;
10126;SDS011;13080;42.608;23.362;2023-02-13T11:16:39;51.63;;;23.40;;
10126;SDS011;13080;42.608;23.362;2023-02-13T11:19:16;59.03;;;26.17;;
10126;SDS011;13080;42.608;23.362;2023-02-13T11:21:46;57.22;;;24.42;;
10126;SDS011;13080;42.608;23.362;2023-02-13T11:24:18;55.97;;;23.70;;
10126;SDS011;13080;42.608;23.362;2023-02-13T11:26:49;44.83;;;22.30;;
10126;SDS011;13080;42.608;23.362;2023-02-13T11:29:19;54.90;;;24.42;;
10126;SDS011;13080;42.608;23.362;2023-02-13T11:31:59;55.50;;;23.75;;
10126;SDS011;13080;42.608;23.362;2023-02-13T11:34:29;47.90;;;22.30;;
10126;SDS011;13080;42.608;23.362;2023-02-13T11:37:14;48.90;;;22.40;;
10126;SDS011;13080;42.608;23.362;2023-02-13T11:39:44;50.35;;;22.55;;
10126;SDS011;13080;42.608;23.362;2023-02-13T11:42:12;53.15;;;23.58;;
10126;SDS011;13080;42.608;23.362;2023-02-13T11:44:41;49.25;;;21.13;;
10126;SDS011;13080;42.608;23.362;2023-02-13T11:47:09;48.55;;;22.10;;
10126;SDS011;13080;42.608;23.362;2023-02-13T11:49:38;47.22;;;20.50;;
10126;SDS011;13080;42.608;23.362;2023-02-13T11:52:22;52.03;;;21.98;;
10126;SDS011;13080;42.608;23.362;2023-02-13T11:57:22;41.42;;;19.55;;
10126;SDS011;13080;42.608;23.362;2023-02-13T11:59:51;45.80;;;20.35;;
10126;SDS011;13080;42.608;23.362;2023-02-13T12:02:19;38.20;;;18.83;;
10126;SDS011;13080;42.608;23.362;2023-02-13T12:04:48;39.80;;;18.25;;
10126;SDS011;13080;42.608;23.362;2023-02-13T12:07:18;41.30;;;18.20;;
10126;SDS011;13080;42.608;23.362;2023-02-13T12:09:49;39.22;;;17.60;;
10126;SDS011;13080;42.608;23.362;2023-02-13T12:12:21;42.47;;;18.63;;
10126;SDS011;13080;42.608;23.362;2023-02-13T12:14:53;38.25;;;16.95;;
10126;SDS011;13080;42.608;23.362;2023-02-13T12:17:22;35.72;;;17.17;;
10126;SDS011;13080;42.608;23.362;2023-02-13T12:19:52;35.05;;;16.88;;
10126;SDS011;13080;42.608;23.362;2023-02-13T12:22:23;38.95;;;18.25;;
10126;SDS011;13080;42.608;23.362;2023-02-13T12:25:00;33.78;;;16.35;;
10126;SDS011;13080;42.608;23.362;2023-02-13T12:27:41;36.08;;;15.95;;
10126;SDS011;13080;42.608;23.362;2023-02-13T12:33:22;32.80;;;15.98;;
10126;SDS011;13080;42.608;23.362;2023-02-13T12:36:05;29.85;;;13.80;;
10126;SDS011;13080;42.608;23.362;2023-02-13T12:38:44;29.63;;;13.00;;
10126;SDS011;13080;42.608;23.362;2023-02-13T12:46:45;31.75;;;14.45;;
10126;SDS011;13080;42.608;23.362;2023-02-13T12:49:32;35.00;;;14.23;;
10126;SDS011;13080;42.608;23.362;2023-02-13T12:52:16;30.23;;;13.52;;
10126;SDS011;13080;42.608;23.362;2023-02-13T12:54:57;25.90;;;13.00;;
10126;SDS011;13080;42.608;23.362;2023-02-13T12:57:42;30.65;;;13.98;;
10126;SDS011;13080;42.608;23.362;2023-02-13T13:00:25;29.45;;;12.70;;
10126;SDS011;13080;42.608;23.362;2023-02-13T13:03:08;30.88;;;11.80;;
10126;SDS011;13080;42.608;23.362;2023-02-13T13:06:08;24.20;;;10.63;;
10126;SDS011;13080;42.608;23.362;2023-02-13T13:11:38;27.52;;;12.57;;
10126;SDS011;13080;42.608;23.362;2023-02-13T13:16:50;24.92;;;11.23;;
10126;SDS011;13080;42.608;23.362;2023-02-13T13:19:27;22.48;;;11.35;;
10126;SDS011;13080;42.608;23.362;2023-02-13T13:22:01;24.05;;;11.82;;
10126;SDS011;13080;42.608;23.362;2023-02-13T13:24:39;29.75;;;18.75;;
10126;SDS011;13080;42.608;23.362;2023-02-13T13:27:14;24.08;;;12.50;;
10126;SDS011;13080;42.608;23.362;2023-02-13T13:29:47;28.20;;;13.77;;
10126;SDS011;13080;42.608;23.362;2023-02-13T13:32:19;29.05;;;12.82;;
10126;SDS011;13080;42.608;23.362;2023-02-13T13:34:48;23.25;;;11.63;;
10126;SDS011;13080;42.608;23.362;2023-02-13T13:37:17;23.35;;;12.25;;
10126;SDS011;13080;42.608;23.362;2023-02-13T13:39:49;26.38;;;12.45;;
10126;SDS011;13080;42.608;23.362;2023-02-13T13:42:24;30.30;;;13.18;;
10126;SDS011;13080;42.608;23.362;2023-02-13T13:45:04;20.98;;;11.25;;
10126;SDS011;13080;42.608;23.362;2023-02-13T13:47:47;22.10;;;11.02;;
10126;SDS011;13080;42.608;23.362;2023-02-13T13:50:30;24.08;;;11.65;;
10126;SDS011;13080;42.608;23.362;2023-02-13T13:53:10;21.88;;;10.68;;
10126;SDS011;13080;42.608;23.362;2023-02-13T13:56:01;23.17;;;10.93;;
10126;SDS011;13080;42.608;23.362;2023-02-13T13:58:42;23.50;;;10.35;;
10126;SDS011;13080;42.608;23.362;2023-02-13T14:04:00;21.55;;;11.40;;
10126;SDS011;13080;42.608;23.362;2023-02-13T14:06:28;27.42;;;13.20;;
10126;SDS011;13080;42.608;23.362;2023-02-13T14:09:39;23.88;;;11.68;;
10126;SDS011;13080;42.608;23.362;2023-02-13T14:15:03;26.75;;;12.65;;
10126;SDS011;13080;42.608;23.362;2023-02-13T14:17:52;20.65;;;10.55;;
10126;SDS011;13080;42.608;23.362;2023-02-13T14:23:26;19.40;;;11.32;;
10126;SDS011;13080;42.608;23.362;2023-02-13T14:26:09;28.05;;;12.30;;
10126;SDS011;13080;42.608;23.362;2023-02-13T14:31:24;28.10;;;12.65;;
10126;SDS011;13080;42.608;23.362;2023-02-13T14:33:56;22.00;;;11.02;;
10126;SDS011;13080;42.608;23.362;2023-02-13T14:36:25;18.17;;;10.23;;
10126;SDS011;13080;42.608;23.362;2023-02-13T14:41:42;17.88;;;10.23;;
10126;SDS011;13080;42.608;23.362;2023-02-13T14:44:15;23.92;;;10.93;;
10126;SDS011;13080;42.608;23.362;2023-02-13T14:46:45;26.45;;;12.15;;
10126;SDS011;13080;42.608;23.362;2023-02-13T14:49:19;22.65;;;12.68;;
10126;SDS011;13080;42.608;23.362;2023-02-13T14:51:50;30.33;;;16.20;;
10126;SDS011;13080;42.608;23.362;2023-02-13T14:54:23;28.17;;;14.27;;
10126;SDS011;13080;42.608;23.362;2023-02-13T14:56:53;30.88;;;13.77;;
10126;SDS011;13080;42.608;23.362;2023-02-13T14:59:30;27.23;;;12.75;;
10126;SDS011;13080;42.608;23.362;2023-02-13T15:02:03;24.77;;;12.70;;
10126;SDS011;13080;42.608;23.362;2023-02-13T15:04:42;26.52;;;13.50;;
10126;SDS011;13080;42.608;23.362;2023-02-13T15:07:13;25.67;;;12.77;;
10126;SDS011;13080;42.608;23.362;2023-02-13T15:09:43;29.92;;;13.30;;
10126;SDS011;13080;42.608;23.362;2023-02-13T15:14:50;26.55;;;13.68;;
10126;SDS011;13080;42.608;23.362;2023-02-13T15:17:17;30.67;;;14.00;;
10126;SDS011;13080;42.608;23.362;2023-02-13T15:19:50;28.67;;;12.73;;
10126;SDS011;13080;42.608;23.362;2023-02-13T15:22:19;27.95;;;11.52;;